createdAt,value
2023-02-18T00:00:23.620Z,23.10
2023-02-18T00:02:52.560Z,22.58
2023-02-18T00:05:19.585Z,28.73
2023-02-18T00:07:46.073Z,27.80
2023-02-18T00:10:14.901Z,26.83
2023-02-18T00:12:41.928Z,27.23
2023-02-18T00:15:09.596Z,28.90
2023-02-18T00:17:36.268Z,24.35
2023-02-18T00:20:02.808Z,26.17
2023-02-18T00:22:29.249Z,26.33
2023-02-18T00:24:55.649Z,23.23
2023-02-18T00:27:22.068Z,26.00
2023-02-18T00:29:48.448Z,27.35
2023-02-18T00:32:14.953Z,22.70
2023-02-18T00:34:41.388Z,23.63
2023-02-18T00:37:07.799Z,23.85
2023-02-18T00:39:34.223Z,28.50
2023-02-18T00:42:00.641Z,26.10
2023-02-18T00:44:27.155Z,24.63
2023-02-18T00:46:53.609Z,29.38
2023-02-18T00:49:20.024Z,26.38
2023-02-18T00:51:46.461Z,30.38
2023-02-18T00:54:12.939Z,24.00
2023-02-18T00:56:39.366Z,25.45
2023-02-18T00:59:05.829Z,27.92
2023-02-18T01:01:32.606Z,25.58
2023-02-18T01:03:59.160Z,25.30
2023-02-18T01:06:25.727Z,23.00
2023-02-18T01:08:52.123Z,31.13
2023-02-18T01:11:18.653Z,25.23
2023-02-18T01:13:45.118Z,24.02
2023-02-18T01:16:11.834Z,24.83
2023-02-18T01:18:39.286Z,24.13
2023-02-18T01:21:08.605Z,26.38
2023-02-18T01:23:36.149Z,23.60
2023-02-18T01:26:02.688Z,23.98
2023-02-18T01:28:29.198Z,25.58
2023-02-18T01:30:55.747Z,26.50
2023-02-18T01:33:22.588Z,24.88
2023-02-18T01:35:49.727Z,28.08
2023-02-18T01:38:16.241Z,27.60
2023-02-18T01:40:51.448Z,26.23
2023-02-18T01:43:20.242Z,33.45
2023-02-18T01:46:10.351Z,24.42
2023-02-18T01:48:45.582Z,24.90
2023-02-18T01:51:23.636Z,24.27
2023-02-18T01:54:01.764Z,28.33
2023-02-18T01:56:35.825Z,29.10
2023-02-18T01:59:07.892Z,26.10
2023-02-18T02:01:35.261Z,28.63
2023-02-18T02:04:01.936Z,32.10
2023-02-18T02:06:28.486Z,25.65
2023-02-18T02:08:59.476Z,30.98
2023-02-18T02:12:10.446Z,30.98
2023-02-18T02:14:54.990Z,26.98
2023-02-18T02:17:36.651Z,24.90
2023-02-18T02:23:28.296Z,23.17
2023-02-18T02:26:22.457Z,27.48
2023-02-18T02:29:16.705Z,22.80
2023-02-18T02:32:01.501Z,30.25
2023-02-18T02:35:06.929Z,25.90
2023-02-18T02:38:12.413Z,27.42
2023-02-18T02:40:50.949Z,24.92
2023-02-18T02:43:49.401Z,29.02
2023-02-18T02:46:26.569Z,23.63
2023-02-18T02:49:22.810Z,24.25
2023-02-18T02:52:11.908Z,25.63
2023-02-18T02:54:38.401Z,23.33
2023-02-18T02:57:25.042Z,26.40
2023-02-18T02:59:57.034Z,24.63
2023-02-18T03:03:00.825Z,24.67
2023-02-18T03:05:39.003Z,25.52
2023-02-18T03:08:39.182Z,27.98
2023-02-18T03:11:14.296Z,26.35
2023-02-18T03:14:05.306Z,25.60
2023-02-18T03:16:42.245Z,24.65
2023-02-18T03:19:22.922Z,24.23
2023-02-18T03:21:58.639Z,28.48
2023-02-18T03:24:42.867Z,27.17
2023-02-18T03:27:29.328Z,27.25
2023-02-18T03:30:05.097Z,28.17
2023-02-18T03:32:34.230Z,28.08
2023-02-18T03:35:06.096Z,23.80
2023-02-18T03:37:37.817Z,25.83
2023-02-18T03:40:05.799Z,27.02
2023-02-18T03:42:32.448Z,26.83
2023-02-18T03:44:59.212Z,28.10
2023-02-18T03:47:25.882Z,31.35
2023-02-18T03:49:52.268Z,23.05
2023-02-18T03:52:19.647Z,25.40
2023-02-18T03:54:46.107Z,24.38
2023-02-18T03:57:12.539Z,21.60
2023-02-18T03:59:38.947Z,23.30
2023-02-18T04:02:05.370Z,21.58
2023-02-18T04:04:32.753Z,22.75
2023-02-18T04:06:59.299Z,24.45
2023-02-18T04:09:26.000Z,22.45
2023-02-18T04:11:52.458Z,23.10
2023-02-18T04:14:18.886Z,23.30
2023-02-18T04:16:45.397Z,25.25
2023-02-18T04:19:11.896Z,19.95
2023-02-18T04:21:38.364Z,19.00
2023-02-18T04:24:04.993Z,20.80
2023-02-18T04:26:31.425Z,21.08
2023-02-18T04:28:57.978Z,21.05
2023-02-18T04:31:24.560Z,19.65
2023-02-18T04:33:51.576Z,23.08
2023-02-18T04:36:18.002Z,19.02
2023-02-18T04:38:44.464Z,26.35
2023-02-18T04:41:12.690Z,26.55
2023-02-18T04:43:39.273Z,23.13
2023-02-18T04:46:05.866Z,20.23
2023-02-18T04:48:32.530Z,25.75
2023-02-18T04:50:58.940Z,22.83
2023-02-18T04:53:25.433Z,24.52
2023-02-18T04:55:52.912Z,25.45
2023-02-18T04:58:20.073Z,27.95
2023-02-18T05:00:46.778Z,27.38
2023-02-18T05:03:14.087Z,25.48
2023-02-18T05:05:41.802Z,29.73
2023-02-18T05:08:08.780Z,32.20
2023-02-18T05:10:35.293Z,25.67
2023-02-18T05:13:01.735Z,23.55
2023-02-18T05:15:28.186Z,30.83
2023-02-18T05:17:54.629Z,31.05
2023-02-18T05:20:21.058Z,22.23
2023-02-18T05:22:47.484Z,28.67
2023-02-18T05:25:13.901Z,40.58
2023-02-18T05:27:40.327Z,27.67
2023-02-18T05:30:07.832Z,29.67
2023-02-18T05:32:34.392Z,28.13
2023-02-18T05:35:00.793Z,32.20
2023-02-18T05:37:27.192Z,21.55
2023-02-18T05:39:53.626Z,24.70
2023-02-18T05:42:20.674Z,27.30
2023-02-18T05:44:47.211Z,21.02
2023-02-18T05:47:13.681Z,25.00
2023-02-18T05:49:41.892Z,25.35
2023-02-18T05:52:09.884Z,24.40
2023-02-18T05:54:37.686Z,21.15
2023-02-18T05:57:04.875Z,21.67
2023-02-18T05:59:31.343Z,19.80
2023-02-18T06:01:57.935Z,18.33
2023-02-18T06:04:24.837Z,25.65
2023-02-18T06:06:51.560Z,18.33
2023-02-18T06:09:18.006Z,18.60
2023-02-18T06:11:44.426Z,19.63
2023-02-18T06:14:10.876Z,20.95
2023-02-18T06:16:37.691Z,17.92
2023-02-18T06:19:04.211Z,18.67
2023-02-18T06:21:30.809Z,23.40
2023-02-18T06:23:57.288Z,15.88
2023-02-18T06:26:24.089Z,23.95
2023-02-18T06:28:50.538Z,15.40
2023-02-18T06:31:17.036Z,16.15
2023-02-18T06:33:43.526Z,19.27
2023-02-18T06:36:12.371Z,16.95
2023-02-18T06:38:43.869Z,20.40
2023-02-18T06:41:11.498Z,21.48
2023-02-18T06:43:38.485Z,19.10
2023-02-18T06:46:05.602Z,21.17
2023-02-18T06:48:32.791Z,22.75
2023-02-18T06:51:25.098Z,24.23
2023-02-18T06:56:32.373Z,18.85
2023-02-18T06:58:58.836Z,20.15
2023-02-18T07:01:25.244Z,23.40
2023-02-18T07:03:51.697Z,25.60
2023-02-18T07:06:18.183Z,17.42
2023-02-18T07:08:44.671Z,17.00
2023-02-18T07:11:11.159Z,16.98
2023-02-18T07:13:37.569Z,18.00
2023-02-18T07:16:04.349Z,21.27
2023-02-18T07:18:30.798Z,20.33
2023-02-18T07:20:57.208Z,18.52
2023-02-18T07:23:23.645Z,19.90
2023-02-18T07:25:50.056Z,18.77
2023-02-18T07:28:16.503Z,21.00
2023-02-18T07:30:43.039Z,22.05
2023-02-18T07:33:10.995Z,25.63
2023-02-18T07:35:37.493Z,26.15
2023-02-18T07:38:04.050Z,28.13
2023-02-18T07:40:30.503Z,23.15
2023-02-18T07:42:56.920Z,29.98
2023-02-18T07:45:23.420Z,25.85
2023-02-18T07:47:49.827Z,26.85
2023-02-18T07:50:16.335Z,28.60
2023-02-18T07:52:42.777Z,26.17
2023-02-18T07:55:09.257Z,29.15
2023-02-18T07:57:55.852Z,32.97
2023-02-18T08:00:22.391Z,32.25
2023-02-18T08:02:48.816Z,46.08
2023-02-18T08:05:15.256Z,41.33
2023-02-18T08:07:41.810Z,32.00
2023-02-18T08:10:08.466Z,30.88
2023-02-18T08:12:45.262Z,36.25
2023-02-18T08:15:12.021Z,38.83
2023-02-18T08:17:38.420Z,33.95
2023-02-18T08:20:05.971Z,41.05
2023-02-18T08:22:32.435Z,34.10
2023-02-18T08:24:58.949Z,37.28
2023-02-18T08:27:25.458Z,32.50
2023-02-18T08:29:52.212Z,34.42
2023-02-18T08:32:18.661Z,33.75
2023-02-18T08:34:49.259Z,40.97
2023-02-18T08:37:18.670Z,34.10
2023-02-18T08:39:45.117Z,34.30
2023-02-18T08:42:11.543Z,35.08
2023-02-18T08:44:38.155Z,31.88
2023-02-18T08:47:04.684Z,38.33
2023-02-18T08:49:53.267Z,32.83
2023-02-18T08:52:20.170Z,37.03
2023-02-18T08:54:46.897Z,34.83
2023-02-18T08:57:13.754Z,33.88
2023-02-18T08:59:40.299Z,38.00
2023-02-18T09:02:06.979Z,33.72
2023-02-18T09:04:33.394Z,30.58
2023-02-18T09:06:59.822Z,35.67
2023-02-18T09:09:26.246Z,30.52
2023-02-18T09:11:52.639Z,35.45
2023-02-18T09:14:19.073Z,29.77
2023-02-18T09:16:45.561Z,29.15
2023-02-18T09:19:12.000Z,33.72
2023-02-18T09:21:38.910Z,24.23
2023-02-18T09:24:05.629Z,31.92
2023-02-18T09:26:33.414Z,28.27
2023-02-18T09:28:59.819Z,29.48
2023-02-18T09:31:27.689Z,29.92
2023-02-18T09:34:02.136Z,32.50
2023-02-18T09:36:29.217Z,25.95
2023-02-18T09:38:55.875Z,26.80
2023-02-18T09:41:32.172Z,33.83
2023-02-18T09:44:07.379Z,30.98
2023-02-18T09:46:40.909Z,19.55
2023-02-18T09:49:16.003Z,22.15
2023-02-18T09:51:43.526Z,20.20
2023-02-18T09:54:14.394Z,25.58
2023-02-18T09:56:42.750Z,29.73
2023-02-18T09:59:16.053Z,28.88
2023-02-18T10:01:50.831Z,24.75
2023-02-18T10:04:23.741Z,22.10
2023-02-18T10:06:57.330Z,28.55
2023-02-18T10:09:34.750Z,24.98
2023-02-18T10:12:19.227Z,25.77
2023-02-18T10:15:03.913Z,24.33
2023-02-18T10:17:33.301Z,24.30
2023-02-18T10:20:01.507Z,21.15
2023-02-18T10:22:30.458Z,24.55
2023-02-18T10:24:59.586Z,23.90
2023-02-18T10:27:29.003Z,27.13
2023-02-18T10:30:24.233Z,19.75
2023-02-18T10:32:57.736Z,28.23
2023-02-18T10:35:34.206Z,24.45
2023-02-18T10:38:24.519Z,27.30
2023-02-18T10:41:02.351Z,23.23
2023-02-18T10:43:34.745Z,21.02
2023-02-18T10:46:13.906Z,26.60
2023-02-18T10:49:09.637Z,24.25
2023-02-18T10:51:40.444Z,18.55
2023-02-18T10:54:07.177Z,27.15
2023-02-18T10:56:40.854Z,22.27
2023-02-18T10:59:25.407Z,19.77
2023-02-18T11:01:58.479Z,20.63
2023-02-18T11:04:46.028Z,20.45
2023-02-18T11:07:13.826Z,17.10
2023-02-18T11:09:53.574Z,22.23
2023-02-18T11:12:30.594Z,23.05
2023-02-18T11:15:05.425Z,22.33
2023-02-18T11:17:34.113Z,24.27
2023-02-18T11:20:04.096Z,19.65
2023-02-18T11:22:41.370Z,22.98
2023-02-18T11:25:26.102Z,23.52
2023-02-18T11:27:56.793Z,20.83
2023-02-18T11:30:39.897Z,19.90
2023-02-18T11:33:16.118Z,20.92
2023-02-18T11:35:50.440Z,21.52
2023-02-18T11:38:41.472Z,19.98
2023-02-18T11:41:12.036Z,25.48
2023-02-18T11:43:42.788Z,16.02
2023-02-18T11:46:11.112Z,22.02
2023-02-18T11:48:37.761Z,23.48
2023-02-18T11:51:07.172Z,21.27
2023-02-18T11:53:36.884Z,19.58
2023-02-18T11:56:16.493Z,18.38
2023-02-18T11:58:48.248Z,20.30
2023-02-18T12:01:20.660Z,18.25
2023-02-18T12:03:51.106Z,17.83
2023-02-18T12:06:30.995Z,18.13
2023-02-18T12:09:17.676Z,18.15
2023-02-18T12:11:49.691Z,16.40
2023-02-18T12:14:19.438Z,16.95
2023-02-18T12:17:02.351Z,25.08
2023-02-18T12:19:34.750Z,16.85
2023-02-18T12:22:20.682Z,23.23
2023-02-18T12:25:01.984Z,16.80
2023-02-18T12:28:10.914Z,17.75
2023-02-18T12:31:06.174Z,19.05
2023-02-18T12:34:16.490Z,15.90
2023-02-18T12:36:55.430Z,16.70
2023-02-18T12:39:57.063Z,15.98
2023-02-18T12:52:37.441Z,18.67
2023-02-18T12:55:27.288Z,21.40
2023-02-18T12:58:35.667Z,20.75
2023-02-18T13:01:15.391Z,18.42
2023-02-18T13:04:06.851Z,16.55
2023-02-18T13:09:51.154Z,13.20
2023-02-18T13:12:36.697Z,16.67
2023-02-18T13:15:34.242Z,17.35
2023-02-18T13:18:24.338Z,18.20
2023-02-18T13:21:05.740Z,16.55
2023-02-18T13:23:37.706Z,16.83
2023-02-18T13:26:30.365Z,18.90
2023-02-18T13:32:27.102Z,16.17
2023-02-18T13:35:33.550Z,16.10
2023-02-18T13:38:47.269Z,13.80
2023-02-18T13:41:14.531Z,20.05
2023-02-18T13:46:25.565Z,15.10
2023-02-18T13:49:17.685Z,15.80
2023-02-18T13:51:50.076Z,18.70
2023-02-18T13:54:26.130Z,14.63
2023-02-18T13:57:01.129Z,22.67
2023-02-18T13:59:41.820Z,19.75
2023-02-18T14:02:21.267Z,13.85
2023-02-18T14:04:55.562Z,16.58
2023-02-18T14:07:40.369Z,16.30
2023-02-18T14:10:12.804Z,11.63
2023-02-18T14:12:41.104Z,13.52
2023-02-18T14:15:19.848Z,10.88
2023-02-18T14:18:14.129Z,14.75
2023-02-18T14:20:45.740Z,11.73
2023-02-18T14:23:18.575Z,17.98
2023-02-18T14:25:59.991Z,12.27
2023-02-18T14:28:38.548Z,13.90
2023-02-18T14:31:32.728Z,14.50
2023-02-18T14:33:59.211Z,14.55
2023-02-18T14:36:34.029Z,12.25
2023-02-18T14:39:56.163Z,14.75
2023-02-18T14:42:50.647Z,12.85
2023-02-18T14:45:32.845Z,14.73
2023-02-18T14:48:02.303Z,13.50
2023-02-18T14:50:35.150Z,14.70
2023-02-18T14:53:07.843Z,14.20
2023-02-18T14:55:43.440Z,14.30
2023-02-18T14:58:28.099Z,14.10
2023-02-18T15:00:54.641Z,14.15
2023-02-18T15:03:22.359Z,14.88
2023-02-18T15:05:51.817Z,15.15
2023-02-18T15:08:26.168Z,15.48
2023-02-18T15:11:01.749Z,18.70
2023-02-18T15:13:34.200Z,15.27
2023-02-18T15:16:05.684Z,13.32
2023-02-18T15:18:38.300Z,16.92
2023-02-18T15:21:07.498Z,14.50
2023-02-18T15:23:39.730Z,17.65
2023-02-18T15:26:10.586Z,14.23
2023-02-18T15:28:43.008Z,15.90
2023-02-18T15:31:15.597Z,14.43
2023-02-18T15:33:47.346Z,17.05
2023-02-18T15:36:15.261Z,15.88
2023-02-18T15:38:42.936Z,15.10
2023-02-18T15:41:13.661Z,11.60
2023-02-18T15:43:51.604Z,15.38
2023-02-18T15:46:18.161Z,11.15
2023-02-18T15:48:49.004Z,10.40
2023-02-18T15:51:22.108Z,7.00
2023-02-18T15:53:53.641Z,7.93
2023-02-18T15:59:16.188Z,7.90
2023-02-18T16:01:42.669Z,9.00
2023-02-18T16:04:13.244Z,6.22
2023-02-18T16:06:46.464Z,6.80
2023-02-18T16:09:19.066Z,9.13
2023-02-18T16:11:49.989Z,6.22
2023-02-18T16:14:28.527Z,12.85
2023-02-18T16:17:15.430Z,8.73
2023-02-18T16:20:05.652Z,8.68
2023-02-18T16:22:33.525Z,10.67
2023-02-18T16:25:07.421Z,8.50
2023-02-18T16:27:37.390Z,15.45
2023-02-18T16:30:31.420Z,8.93
2023-02-18T16:32:58.999Z,6.63
2023-02-18T16:35:30.672Z,11.93
2023-02-18T16:37:59.675Z,6.70
2023-02-18T16:40:40.563Z,8.50
2023-02-18T16:43:10.048Z,7.15
2023-02-18T16:45:49.964Z,9.07
2023-02-18T16:48:28.228Z,7.43
2023-02-18T16:50:54.815Z,15.48
2023-02-18T16:53:21.868Z,8.27
2023-02-18T16:55:50.844Z,7.72
2023-02-18T16:58:17.841Z,10.30
2023-02-18T17:00:46.169Z,9.32
2023-02-18T17:03:13.502Z,8.45
2023-02-18T17:05:41.065Z,11.10
2023-02-18T17:08:26.933Z,10.85
2023-02-18T17:10:56.157Z,11.27
2023-02-18T17:13:25.523Z,9.00
2023-02-18T17:15:54.759Z,8.65
2023-02-18T17:18:21.456Z,8.40
2023-02-18T17:20:48.918Z,9.85
2023-02-18T17:23:16.397Z,8.15
2023-02-18T17:25:43.260Z,6.78
2023-02-18T17:28:09.673Z,11.48
2023-02-18T17:30:39.091Z,10.82
2023-02-18T17:33:06.704Z,7.70
2023-02-18T17:35:33.400Z,7.43
2023-02-18T17:38:00.002Z,9.32
2023-02-18T17:40:28.207Z,8.48
2023-02-18T17:42:55.994Z,9.25
2023-02-18T17:45:32.105Z,8.73
2023-02-18T17:48:00.415Z,8.95
2023-02-18T17:50:28.445Z,19.25
2023-02-18T17:52:57.783Z,7.60
2023-02-18T17:55:25.507Z,6.80
2023-02-18T17:57:53.012Z,10.07
2023-02-18T18:00:34.675Z,8.57
2023-02-18T18:03:01.439Z,12.73
2023-02-18T18:05:36.474Z,11.57
2023-02-18T18:08:04.644Z,11.27
2023-02-18T18:10:34.475Z,9.00
2023-02-18T18:13:04.485Z,9.55
2023-02-18T18:15:34.168Z,16.48
2023-02-18T18:18:00.769Z,10.05
2023-02-18T18:20:30.459Z,14.30
2023-02-18T18:22:58.675Z,9.50
2023-02-18T18:25:29.230Z,13.20
2023-02-18T18:27:56.413Z,11.98
2023-02-18T18:30:28.612Z,9.48
2023-02-18T18:32:55.701Z,10.73
2023-02-18T18:35:26.605Z,11.65
2023-02-18T18:37:53.893Z,11.88
2023-02-18T18:40:22.569Z,12.10
2023-02-18T18:42:49.208Z,9.90
2023-02-18T18:45:19.825Z,10.55
2023-02-18T18:47:46.959Z,13.65
2023-02-18T18:50:13.729Z,11.18
2023-02-18T18:52:43.322Z,12.55
2023-02-18T18:55:33.972Z,13.45
2023-02-18T18:58:01.003Z,11.60
2023-02-18T19:00:34.213Z,11.40
2023-02-18T19:03:03.194Z,13.57
2023-02-18T19:05:37.385Z,12.52
2023-02-18T19:08:05.637Z,12.40
2023-02-18T19:10:35.737Z,13.40
2023-02-18T19:13:06.660Z,12.65
2023-02-18T19:15:33.306Z,12.05
2023-02-18T19:17:59.800Z,14.32
2023-02-18T19:20:29.834Z,17.85
2023-02-18T19:22:56.321Z,15.10
2023-02-18T19:25:23.130Z,20.80
2023-02-18T19:27:52.449Z,17.17
2023-02-18T19:30:28.200Z,15.98
2023-02-18T19:32:57.713Z,16.50
2023-02-18T19:35:25.965Z,15.68
2023-02-18T19:37:52.875Z,16.55
2023-02-18T19:40:24.694Z,13.55
2023-02-18T19:42:51.834Z,16.58
2023-02-18T19:45:19.538Z,23.02
2023-02-18T19:47:46.407Z,17.95
2023-02-18T19:50:15.819Z,12.25
2023-02-18T19:52:42.303Z,14.50
2023-02-18T19:55:09.939Z,15.00
2023-02-18T19:57:36.447Z,10.70
2023-02-18T20:00:05.754Z,13.70
2023-02-18T20:02:32.730Z,20.13
2023-02-18T20:05:01.581Z,13.10
2023-02-18T20:07:29.178Z,11.13
2023-02-18T20:09:55.702Z,10.82
2023-02-18T20:12:22.697Z,13.30
2023-02-18T20:14:50.584Z,9.80
2023-02-18T20:17:17.767Z,11.70
2023-02-18T20:19:44.291Z,16.23
2023-02-18T20:22:10.736Z,16.40
2023-02-18T20:24:39.490Z,12.57
2023-02-18T20:27:07.166Z,14.13
2023-02-18T20:29:34.688Z,15.63
2023-02-18T20:32:01.387Z,14.10
2023-02-18T20:34:28.445Z,12.63
2023-02-18T20:36:54.997Z,13.55
2023-02-18T20:39:22.749Z,16.00
2023-02-18T20:41:50.283Z,15.00
2023-02-18T20:44:18.355Z,12.82
2023-02-18T20:46:45.352Z,17.02
2023-02-18T20:49:14.161Z,15.48
2023-02-18T20:51:41.267Z,15.07
2023-02-18T20:54:09.970Z,12.73
2023-02-18T20:56:37.810Z,14.55
2023-02-18T20:59:05.065Z,15.27
2023-02-18T21:01:32.224Z,15.18
2023-02-18T21:03:58.834Z,14.77
2023-02-18T21:06:27.271Z,15.65
2023-02-18T21:08:54.232Z,15.23
2023-02-18T21:11:23.757Z,16.70
2023-02-18T21:13:52.087Z,17.90
2023-02-18T21:16:21.201Z,22.95
2023-02-18T21:18:47.872Z,19.25
2023-02-18T21:21:14.993Z,22.95
2023-02-18T21:23:41.677Z,24.75
2023-02-18T21:26:09.527Z,25.10
2023-02-18T21:28:36.045Z,25.60
2023-02-18T21:31:03.117Z,21.00
2023-02-18T21:33:29.908Z,15.40
2023-02-18T21:35:56.612Z,19.55
2023-02-18T21:38:23.026Z,15.30
2023-02-18T21:40:49.459Z,17.77
2023-02-18T21:43:15.863Z,16.10
2023-02-18T21:45:42.308Z,16.08
2023-02-18T21:48:27.548Z,16.13
2023-02-18T21:50:54.014Z,32.42
2023-02-18T21:53:22.754Z,68.88
2023-02-18T21:56:02.192Z,34.05
2023-02-18T21:58:30.115Z,24.50
2023-02-18T22:00:58.159Z,16.73
2023-02-18T22:03:24.714Z,16.42
2023-02-18T22:05:51.142Z,21.63
2023-02-18T22:08:17.536Z,20.90
2023-02-18T22:10:43.970Z,19.75
2023-02-18T22:13:10.370Z,18.17
2023-02-18T22:15:36.802Z,16.35
2023-02-18T22:18:03.229Z,29.98
2023-02-18T22:20:29.663Z,24.95
2023-02-18T22:22:56.034Z,23.00
2023-02-18T22:25:23.666Z,18.83
2023-02-18T22:27:50.066Z,17.00
2023-02-18T22:30:18.732Z,24.55
2023-02-18T22:32:45.337Z,15.35
2023-02-18T22:35:11.802Z,22.52
2023-02-18T22:37:38.254Z,23.88
2023-02-18T22:40:05.148Z,27.52
2023-02-18T22:42:31.563Z,26.05
2023-02-18T22:45:02.255Z,24.45
2023-02-18T22:47:28.941Z,28.80
2023-02-18T22:49:55.355Z,23.90
2023-02-18T22:52:21.743Z,27.73
2023-02-18T22:54:48.126Z,22.85
2023-02-18T22:57:14.595Z,32.88
2023-02-18T22:59:41.491Z,24.35
2023-02-18T23:02:08.105Z,29.25
2023-02-18T23:04:34.496Z,24.83
2023-02-18T23:07:00.950Z,27.67
2023-02-18T23:09:27.451Z,29.60
2023-02-18T23:11:56.546Z,27.45
2023-02-18T23:14:23.630Z,23.70
2023-02-18T23:17:14.200Z,20.65
2023-02-18T23:19:49.578Z,23.67
2023-02-18T23:22:19.468Z,21.02
2023-02-18T23:24:46.893Z,27.67
2023-02-18T23:27:15.291Z,23.77
2023-02-18T23:29:42.161Z,23.67
2023-02-18T23:32:09.363Z,29.58
2023-02-18T23:34:36.201Z,23.13
2023-02-18T23:37:02.588Z,28.10
2023-02-18T23:39:29.560Z,29.38
2023-02-18T23:41:56.370Z,22.17
2023-02-18T23:44:23.997Z,27.05
2023-02-18T23:46:51.018Z,21.77
2023-02-18T23:49:20.111Z,23.83
2023-02-18T23:51:46.685Z,25.45
2023-02-18T23:54:13.122Z,28.20
2023-02-18T23:56:40.022Z,23.55
2023-02-18T23:59:06.536Z,25.00
